createdAt,value
2023-02-25T00:02:03.251Z,5.00
2023-02-25T00:04:31.571Z,5.10
2023-02-25T00:07:00.234Z,5.20
2023-02-25T00:09:28.195Z,5.20
2023-02-25T00:11:55.347Z,5.20
2023-02-25T00:14:22.732Z,5.20
2023-02-25T00:16:50.579Z,5.20
2023-02-25T00:19:17.980Z,5.30
2023-02-25T00:21:45.022Z,5.20
2023-02-25T00:24:16.974Z,5.20
2023-02-25T00:26:46.492Z,5.20
2023-02-25T00:29:16.222Z,5.20
2023-02-25T00:31:46.146Z,5.20
2023-02-25T00:34:13.719Z,5.10
2023-02-25T00:36:40.797Z,5.00
2023-02-25T00:39:08.308Z,4.90
2023-02-25T00:41:35.690Z,4.80
2023-02-25T00:44:03.838Z,4.80
2023-02-25T00:46:33.510Z,4.70
2023-02-25T00:49:01.255Z,4.60
2023-02-25T00:51:31.232Z,4.60
2023-02-25T00:54:00.873Z,4.50
2023-02-25T00:56:30.812Z,4.50
2023-02-25T00:58:59.783Z,4.50
2023-02-25T01:01:30.553Z,4.50
2023-02-25T01:03:58.617Z,4.50
2023-02-25T01:06:27.855Z,4.60
2023-02-25T01:08:55.807Z,4.70
2023-02-25T01:11:25.737Z,4.80
2023-02-25T01:13:53.741Z,4.80
2023-02-25T01:16:24.133Z,4.90
2023-02-25T01:18:53.486Z,4.90
2023-02-25T01:21:33.011Z,4.80
2023-02-25T01:24:07.344Z,4.90
2023-02-25T01:26:38.870Z,4.90
2023-02-25T01:29:14.211Z,4.90
2023-02-25T01:31:41.796Z,4.90
2023-02-25T01:34:13.331Z,4.90
2023-02-25T01:36:40.522Z,4.90
2023-02-25T01:39:09.892Z,4.90
2023-02-25T01:41:40.341Z,4.80
2023-02-25T01:44:21.295Z,4.90
2023-02-25T01:46:53.763Z,4.90
2023-02-25T01:49:44.573Z,4.90
2023-02-25T01:52:23.418Z,4.80
2023-02-25T01:54:55.700Z,4.80
2023-02-25T01:57:28.506Z,4.80
2023-02-25T01:59:56.046Z,4.80
2023-02-25T02:02:29.587Z,4.80
2023-02-25T02:04:57.160Z,4.80
2023-02-25T02:07:26.669Z,4.90
2023-02-25T02:09:53.996Z,4.90
2023-02-25T02:12:25.535Z,4.90
2023-02-25T02:14:53.631Z,4.90
2023-02-25T02:17:45.141Z,4.80
2023-02-25T02:20:15.164Z,4.70
2023-02-25T02:22:45.027Z,4.70
2023-02-25T02:25:30.787Z,4.70
2023-02-25T02:28:16.149Z,4.70
2023-02-25T02:31:11.487Z,4.60
2023-02-25T02:34:04.546Z,4.70
2023-02-25T02:36:50.724Z,4.60
2023-02-25T02:39:36.586Z,4.60
2023-02-25T02:42:24.185Z,4.60
2023-02-25T02:44:57.919Z,4.50
2023-02-25T02:47:35.634Z,4.50
2023-02-25T02:50:28.675Z,4.50
2023-02-25T02:52:59.673Z,4.50
2023-02-25T02:55:34.240Z,4.40
2023-02-25T02:58:07.839Z,4.40
2023-02-25T03:00:39.544Z,4.40
2023-02-25T03:03:18.266Z,4.40
2023-02-25T03:05:49.358Z,4.30
2023-02-25T03:08:28.431Z,4.30
2023-02-25T03:10:55.514Z,4.30
2023-02-25T03:13:22.999Z,4.30
2023-02-25T03:15:53.826Z,4.20
2023-02-25T03:18:24.180Z,4.20
2023-02-25T03:20:55.491Z,4.20
2023-02-25T03:23:28.747Z,4.10
2023-02-25T03:26:06.392Z,4.10
2023-02-25T03:28:37.775Z,4.00
2023-02-25T03:31:31.014Z,3.90
2023-02-25T03:34:13.363Z,3.90
2023-02-25T03:36:56.369Z,3.80
2023-02-25T03:39:35.691Z,3.70
2023-02-25T03:42:07.533Z,3.70
2023-02-25T03:44:44.212Z,3.70
2023-02-25T03:47:13.575Z,3.60
2023-02-25T03:49:57.544Z,3.60
2023-02-25T03:52:28.130Z,3.50
2023-02-25T03:54:58.331Z,3.50
2023-02-25T03:57:33.814Z,3.50
2023-02-25T04:00:01.343Z,3.50
2023-02-25T04:02:32.806Z,3.50
2023-02-25T04:05:00.502Z,3.50
2023-02-25T04:07:27.620Z,3.60
2023-02-25T04:09:55.012Z,3.70
2023-02-25T04:12:22.106Z,3.70
2023-02-25T04:14:49.457Z,3.80
2023-02-25T04:17:16.511Z,3.90
2023-02-25T04:19:43.855Z,3.90
2023-02-25T04:22:10.998Z,3.90
2023-02-25T04:24:38.440Z,3.90
2023-02-25T04:27:05.477Z,4.00
2023-02-25T04:29:32.942Z,4.00
2023-02-25T04:32:02.698Z,4.00
2023-02-25T04:34:30.132Z,4.00
2023-02-25T04:36:57.210Z,4.00
2023-02-25T04:39:24.548Z,4.10
2023-02-25T04:41:51.595Z,4.10
2023-02-25T04:44:18.927Z,4.10
2023-02-25T04:46:48.291Z,4.10
2023-02-25T04:49:15.698Z,4.20
2023-02-25T04:51:42.740Z,4.20
2023-02-25T04:54:10.139Z,4.20
2023-02-25T04:56:38.529Z,4.20
2023-02-25T04:59:06.411Z,4.20
2023-02-25T05:01:33.770Z,4.20
2023-02-25T05:04:01.158Z,4.20
2023-02-25T05:06:28.898Z,4.10
2023-02-25T05:08:57.062Z,4.10
2023-02-25T05:11:26.907Z,4.10
2023-02-25T05:13:54.906Z,4.00
2023-02-25T05:16:22.998Z,4.00
2023-02-25T05:18:53.417Z,4.00
2023-02-25T05:21:24.596Z,4.00
2023-02-25T05:23:54.491Z,3.90
2023-02-25T05:26:24.132Z,4.00
2023-02-25T05:28:58.648Z,4.00
2023-02-25T05:31:28.576Z,4.00
2023-02-25T05:33:58.890Z,4.00
2023-02-25T05:36:28.111Z,4.00
2023-02-25T05:38:57.913Z,4.10
2023-02-25T05:41:26.111Z,4.10
2023-02-25T05:43:53.471Z,4.10
2023-02-25T05:46:20.786Z,4.00
2023-02-25T05:48:48.194Z,4.10
2023-02-25T05:51:18.834Z,4.10
2023-02-25T05:53:49.333Z,4.10
2023-02-25T05:56:21.318Z,4.10
2023-02-25T05:58:51.940Z,4.10
2023-02-25T06:01:22.419Z,4.00
2023-02-25T06:03:52.028Z,4.00
2023-02-25T06:06:23.459Z,4.00
2023-02-25T06:08:51.738Z,3.90
2023-02-25T06:11:30.151Z,4.00
2023-02-25T06:14:00.848Z,4.00
2023-02-25T06:16:29.064Z,4.00
2023-02-25T06:18:59.684Z,4.00
2023-02-25T06:21:31.785Z,4.00
2023-02-25T06:23:59.849Z,4.00
2023-02-25T06:26:27.343Z,4.00
2023-02-25T06:28:55.014Z,4.00
2023-02-25T06:31:24.114Z,4.00
2023-02-25T06:33:53.985Z,4.10
2023-02-25T06:36:23.896Z,4.10
2023-02-25T06:38:53.946Z,4.10
2023-02-25T06:41:22.441Z,4.20
2023-02-25T06:43:50.144Z,4.20
2023-02-25T06:46:21.036Z,4.30
2023-02-25T06:48:51.166Z,4.30
2023-02-25T06:51:18.280Z,4.30
2023-02-25T06:53:45.853Z,4.30
2023-02-25T06:56:16.641Z,4.30
2023-02-25T06:58:44.212Z,4.40
2023-02-25T07:01:16.222Z,4.50
2023-02-25T07:03:44.258Z,4.60
2023-02-25T07:06:13.895Z,4.70
2023-02-25T07:08:41.334Z,4.70
2023-02-25T07:11:28.093Z,4.90
2023-02-25T07:13:55.511Z,5.10
2023-02-25T07:16:25.435Z,5.30
2023-02-25T07:18:53.752Z,5.50
2023-02-25T07:21:20.886Z,5.60
2023-02-25T07:23:48.389Z,5.70
2023-02-25T07:26:18.293Z,5.80
2023-02-25T07:28:48.238Z,5.90
2023-02-25T07:31:18.861Z,6.00
2023-02-25T07:33:49.140Z,6.00
2023-02-25T07:36:16.499Z,6.00
2023-02-25T07:38:44.538Z,6.00
2023-02-25T07:41:13.836Z,6.10
2023-02-25T07:43:41.525Z,6.20
2023-02-25T07:46:09.649Z,6.10
2023-02-25T07:48:37.376Z,5.90
2023-02-25T07:51:11.849Z,5.90
2023-02-25T07:53:41.908Z,5.80
2023-02-25T07:56:12.347Z,5.80
2023-02-25T07:58:39.749Z,5.80
2023-02-25T08:01:33.564Z,5.80
2023-02-25T08:04:03.529Z,5.70
2023-02-25T08:06:31.728Z,5.70
2023-02-25T08:08:59.106Z,5.70
2023-02-25T08:11:26.984Z,5.70
2023-02-25T08:13:54.866Z,5.70
2023-02-25T08:16:22.733Z,5.60
2023-02-25T08:18:50.346Z,5.50
2023-02-25T08:21:19.281Z,5.50
2023-02-25T08:23:47.089Z,5.70
2023-02-25T08:26:17.163Z,5.80
2023-02-25T08:28:45.888Z,6.00
2023-02-25T08:31:13.708Z,6.00
2023-02-25T08:33:43.608Z,5.90
2023-02-25T08:36:16.914Z,5.90
2023-02-25T08:38:45.355Z,5.70
2023-02-25T08:41:13.026Z,5.70
2023-02-25T08:43:40.774Z,5.70
2023-02-25T08:46:08.580Z,5.80
2023-02-25T08:48:36.411Z,6.00
2023-02-25T08:51:07.890Z,6.30
2023-02-25T08:53:42.164Z,6.60
2023-02-25T08:56:12.151Z,7.00
2023-02-25T08:58:40.475Z,7.20
2023-02-25T09:01:12.459Z,7.10
2023-02-25T09:03:41.167Z,6.90
2023-02-25T09:06:10.409Z,6.60
2023-02-25T09:08:37.797Z,6.40
2023-02-25T09:11:09.384Z,6.20
2023-02-25T09:13:37.932Z,6.10
2023-02-25T09:16:07.702Z,6.00
2023-02-25T09:18:35.099Z,5.80
2023-02-25T09:21:02.772Z,5.70
2023-02-25T09:23:30.125Z,5.70
2023-02-25T09:26:03.477Z,5.60
2023-02-25T09:28:30.972Z,5.60
2023-02-25T09:31:00.810Z,5.70
2023-02-25T09:33:31.574Z,5.80
2023-02-25T09:36:08.861Z,5.90
2023-02-25T09:38:42.887Z,6.00
2023-02-25T09:41:18.732Z,6.10
2023-02-25T09:43:46.718Z,6.20
2023-02-25T09:46:17.541Z,6.20
2023-02-25T09:48:57.958Z,6.30
2023-02-25T09:51:32.893Z,6.40
2023-02-25T09:54:37.931Z,6.50
2023-02-25T09:57:06.173Z,6.60
2023-02-25T09:59:33.575Z,6.50
2023-02-25T10:02:21.611Z,6.50
2023-02-25T10:05:16.542Z,6.50
2023-02-25T10:08:20.094Z,6.30
2023-02-25T10:11:02.860Z,6.10
2023-02-25T10:13:48.890Z,5.90
2023-02-25T10:16:29.071Z,5.60
2023-02-25T10:19:09.296Z,5.60
2023-02-25T10:21:48.777Z,5.50
2023-02-25T10:24:24.681Z,5.40
2023-02-25T10:26:58.979Z,5.30
2023-02-25T10:29:34.613Z,5.40
2023-02-25T10:32:18.238Z,5.50
2023-02-25T10:34:54.554Z,5.60
2023-02-25T10:37:27.784Z,5.40
2023-02-25T10:40:00.610Z,5.30
2023-02-25T10:42:32.055Z,5.20
2023-02-25T10:45:06.557Z,5.20
2023-02-25T10:47:41.353Z,5.20
2023-02-25T10:50:13.335Z,5.30
2023-02-25T10:53:15.824Z,5.30
2023-02-25T10:56:01.531Z,5.20
2023-02-25T10:59:07.057Z,5.00
2023-02-25T11:01:43.443Z,5.00
2023-02-25T11:04:20.169Z,4.20
2023-02-25T11:06:49.570Z,5.10
2023-02-25T11:09:21.511Z,5.10
2023-02-25T11:12:16.675Z,5.00
2023-02-25T11:14:52.519Z,7.90
2023-02-25T11:17:20.388Z,5.30
2023-02-25T11:20:02.391Z,5.50
2023-02-25T11:22:43.461Z,7.60
2023-02-25T11:25:20.174Z,5.80
2023-02-25T11:27:57.606Z,6.00
2023-02-25T11:30:34.218Z,6.10
2023-02-25T11:33:06.078Z,6.10
2023-02-25T11:35:39.056Z,6.20
2023-02-25T11:38:26.667Z,6.40
2023-02-25T11:40:56.339Z,6.60
2023-02-25T11:43:34.403Z,6.60
2023-02-25T11:46:27.458Z,6.70
2023-02-25T11:49:02.506Z,6.60
2023-02-25T11:51:35.394Z,6.60
2023-02-25T11:54:11.456Z,6.50
2023-02-25T11:56:45.032Z,6.40
2023-02-25T11:59:26.230Z,6.30
2023-02-25T12:02:20.889Z,6.30
2023-02-25T12:04:47.822Z,6.20
2023-02-25T12:07:36.730Z,6.30
2023-02-25T12:10:25.050Z,6.30
2023-02-25T12:13:20.130Z,6.30
2023-02-25T12:16:24.991Z,6.30
2023-02-25T12:19:17.129Z,6.20
2023-02-25T12:21:53.017Z,6.20
2023-02-25T12:24:41.405Z,6.20
2023-02-25T12:27:40.093Z,6.10
2023-02-25T12:30:07.533Z,6.00
2023-02-25T12:32:45.228Z,6.00
2023-02-25T12:35:38.729Z,6.10
2023-02-25T12:38:21.044Z,6.10
2023-02-25T12:40:51.326Z,6.10
2023-02-25T12:43:37.285Z,6.10
2023-02-25T12:46:29.464Z,6.10
2023-02-25T12:49:31.297Z,6.00
2023-02-25T12:52:17.620Z,6.00
2023-02-25T12:55:17.900Z,6.10
2023-02-25T12:58:16.620Z,6.00
2023-02-25T13:01:01.866Z,5.90
2023-02-25T13:03:57.771Z,5.70
2023-02-25T13:06:43.548Z,5.70
2023-02-25T13:09:31.165Z,5.50
2023-02-25T13:12:30.361Z,5.60
2023-02-25T13:15:10.043Z,5.60
2023-02-25T13:17:49.366Z,5.60
2023-02-25T13:20:35.349Z,5.60
2023-02-25T13:23:12.666Z,5.60
2023-02-25T13:26:05.868Z,5.60
2023-02-25T13:28:51.591Z,5.60
2023-02-25T13:32:04.125Z,5.60
2023-02-25T13:35:10.482Z,5.60
2023-02-25T13:37:53.748Z,5.70
2023-02-25T13:40:55.556Z,5.60
2023-02-25T13:43:28.542Z,5.60
2023-02-25T13:46:14.335Z,5.60
2023-02-25T13:48:47.794Z,5.50
2023-02-25T13:51:39.534Z,5.40
2023-02-25T13:54:33.764Z,5.40
2023-02-25T13:57:26.502Z,5.40
2023-02-25T14:00:02.688Z,5.30
2023-02-25T14:03:11.612Z,5.30
2023-02-25T14:05:41.939Z,5.20
2023-02-25T14:08:28.919Z,5.20
2023-02-25T14:11:01.969Z,5.10
2023-02-25T14:13:34.571Z,5.10
2023-02-25T14:16:40.253Z,5.10
2023-02-25T14:19:34.171Z,5.20
2023-02-25T14:22:59.528Z,5.20
2023-02-25T14:26:05.456Z,5.30
2023-02-25T14:28:42.110Z,5.20
2023-02-25T14:31:46.207Z,5.20
2023-02-25T14:34:31.795Z,5.10
2023-02-25T14:37:34.687Z,5.00
2023-02-25T14:40:42.734Z,4.90
2023-02-25T14:43:22.505Z,4.60
2023-02-25T14:46:03.924Z,4.40
2023-02-25T14:49:02.313Z,4.30
2023-02-25T14:51:54.597Z,4.30
2023-02-25T14:54:49.196Z,4.30
2023-02-25T14:57:40.957Z,4.30
2023-02-25T15:00:20.025Z,4.40
2023-02-25T15:03:20.286Z,4.60
2023-02-25T15:06:28.806Z,4.80
2023-02-25T15:09:16.838Z,5.00
2023-02-25T15:11:52.853Z,5.20
2023-02-25T15:15:00.287Z,5.10
2023-02-25T15:18:00.547Z,4.80
2023-02-25T15:20:38.945Z,4.50
2023-02-25T15:23:15.937Z,4.20
2023-02-25T15:25:48.072Z,4.00
2023-02-25T15:28:30.370Z,3.90
2023-02-25T15:31:00.732Z,3.80
2023-02-25T15:33:34.393Z,3.70
2023-02-25T15:36:25.615Z,3.70
2023-02-25T15:38:56.432Z,3.60
2023-02-25T15:41:27.909Z,3.60
2023-02-25T15:44:01.276Z,3.50
2023-02-25T15:46:35.935Z,3.40
2023-02-25T15:49:03.332Z,3.30
2023-02-25T15:51:58.792Z,3.20
2023-02-25T15:54:28.902Z,3.20
2023-02-25T15:57:03.724Z,3.20
2023-02-25T15:59:46.299Z,3.20
2023-02-25T16:02:29.076Z,3.20
2023-02-25T16:05:10.204Z,3.10
2023-02-25T16:07:41.678Z,3.10
2023-02-25T16:10:20.373Z,3.10
2023-02-25T16:12:50.398Z,3.10
2023-02-25T16:15:32.362Z,3.10
2023-02-25T16:18:23.450Z,3.00
2023-02-25T16:20:59.240Z,3.00
2023-02-25T16:23:26.861Z,3.00
2023-02-25T16:26:06.012Z,3.00
2023-02-25T16:29:14.442Z,2.90
2023-02-25T16:31:47.163Z,2.90
2023-02-25T16:34:27.896Z,2.90
2023-02-25T16:37:03.860Z,2.90
2023-02-25T16:39:32.057Z,2.90
2023-02-25T16:42:15.449Z,3.00
2023-02-25T16:44:46.699Z,3.00
2023-02-25T16:47:24.327Z,3.00
2023-02-25T16:49:53.873Z,3.00
2023-02-25T16:52:29.978Z,3.00
2023-02-25T16:55:06.445Z,3.00
2023-02-25T16:57:33.618Z,3.00
2023-02-25T17:00:15.291Z,3.00
2023-02-25T17:02:50.698Z,2.90
2023-02-25T17:05:29.799Z,2.90
2023-02-25T17:08:01.517Z,2.90
2023-02-25T17:10:43.925Z,2.90
2023-02-25T17:13:23.868Z,3.10
2023-02-25T17:15:59.869Z,3.20
2023-02-25T17:18:28.946Z,3.10
2023-02-25T17:21:09.322Z,3.10
2023-02-25T17:23:42.194Z,3.10
2023-02-25T17:26:14.787Z,3.00
2023-02-25T17:28:45.262Z,3.00
2023-02-25T17:31:16.506Z,2.90
2023-02-25T17:33:55.582Z,2.90
2023-02-25T17:36:37.612Z,2.90
2023-02-25T17:39:08.423Z,2.90
2023-02-25T17:41:36.708Z,2.90
2023-02-25T17:44:06.395Z,2.90
2023-02-25T17:46:35.290Z,2.80
2023-02-25T17:49:21.530Z,2.80
2023-02-25T17:51:57.852Z,2.80
2023-02-25T17:54:27.376Z,2.80
2023-02-25T17:56:59.116Z,2.80
2023-02-25T17:59:38.031Z,2.70
2023-02-25T18:02:34.936Z,2.60
2023-02-25T18:05:25.700Z,2.50
2023-02-25T18:08:08.587Z,2.50
2023-02-25T18:10:35.643Z,2.50
2023-02-25T18:13:05.067Z,2.50
2023-02-25T18:15:35.068Z,2.40
2023-02-25T18:18:04.744Z,2.40
2023-02-25T18:20:33.980Z,2.40
2023-02-25T18:23:18.953Z,2.40
2023-02-25T18:25:48.852Z,2.40
2023-02-25T18:28:18.396Z,2.40
2023-02-25T18:30:48.798Z,2.50
2023-02-25T18:33:17.574Z,2.50
2023-02-25T18:35:50.667Z,2.50
2023-02-25T18:38:24.476Z,2.60
2023-02-25T18:40:54.518Z,2.60
2023-02-25T18:43:26.852Z,2.50
2023-02-25T18:45:59.186Z,2.50
2023-02-25T18:48:28.873Z,2.40
2023-02-25T18:50:56.010Z,2.40
2023-02-25T18:53:26.533Z,2.40
2023-02-25T18:55:55.225Z,2.30
2023-02-25T18:58:25.098Z,2.30
2023-02-25T19:00:55.823Z,2.30
2023-02-25T19:03:37.838Z,2.20
2023-02-25T19:06:07.374Z,2.20
2023-02-25T19:08:37.241Z,2.20
2023-02-25T19:11:05.032Z,2.20
2023-02-25T19:13:38.733Z,2.30
2023-02-25T19:16:08.502Z,2.30
2023-02-25T19:18:36.173Z,2.30
2023-02-25T19:21:04.181Z,2.20
2023-02-25T19:23:34.177Z,2.20
2023-02-25T19:26:07.621Z,2.30
2023-02-25T19:28:39.795Z,2.40
2023-02-25T19:31:09.709Z,2.40
2023-02-25T19:33:39.714Z,2.40
2023-02-25T19:36:07.161Z,2.40
2023-02-25T19:38:36.852Z,2.30
2023-02-25T19:41:06.619Z,2.30
2023-02-25T19:43:34.325Z,2.30
2023-02-25T19:46:01.442Z,2.40
2023-02-25T19:48:31.358Z,2.40
2023-02-25T19:51:04.540Z,2.40
2023-02-25T19:53:31.924Z,2.40
2023-02-25T19:56:01.253Z,2.40
2023-02-25T19:58:33.772Z,2.30
2023-02-25T20:01:08.829Z,2.30
2023-02-25T20:03:38.691Z,2.30
2023-02-25T20:06:13.604Z,2.30
2023-02-25T20:08:45.972Z,2.30
2023-02-25T20:11:13.137Z,2.30
2023-02-25T20:13:40.753Z,2.40
2023-02-25T20:16:10.793Z,2.40
2023-02-25T20:18:38.708Z,2.30
2023-02-25T20:21:06.623Z,2.40
2023-02-25T20:23:39.816Z,2.40
2023-02-25T20:26:12.298Z,2.40
2023-02-25T20:28:40.537Z,2.30
2023-02-25T20:31:10.906Z,2.30
2023-02-25T20:33:45.758Z,2.10
2023-02-25T20:36:27.770Z,2.00
2023-02-25T20:39:14.959Z,2.00
2023-02-25T20:41:43.845Z,2.00
2023-02-25T20:44:12.027Z,2.00
2023-02-25T20:46:40.179Z,1.90
2023-02-25T20:49:15.549Z,1.90
2023-02-25T20:51:46.370Z,1.90
2023-02-25T20:54:16.051Z,2.00
2023-02-25T20:56:46.409Z,2.00
2023-02-25T20:59:15.813Z,2.00
2023-02-25T21:01:45.622Z,1.90
2023-02-25T21:04:13.190Z,1.80
2023-02-25T21:06:47.806Z,1.70
2023-02-25T21:09:31.059Z,1.70
2023-02-25T21:12:00.839Z,1.70
2023-02-25T21:14:28.334Z,1.70
2023-02-25T21:16:57.788Z,1.60
2023-02-25T21:19:28.299Z,1.60
2023-02-25T21:21:55.755Z,1.50
2023-02-25T21:24:26.208Z,1.50
2023-02-25T21:26:55.682Z,1.40
2023-02-25T21:29:23.164Z,1.40
2023-02-25T21:31:52.879Z,1.30
2023-02-25T21:34:22.643Z,1.60
2023-02-25T21:36:49.856Z,1.70
2023-02-25T21:39:29.074Z,1.60
2023-02-25T21:41:58.983Z,1.50
2023-02-25T21:44:30.380Z,1.50
2023-02-25T21:47:00.089Z,1.40
2023-02-25T21:49:27.635Z,1.40
2023-02-25T21:51:55.001Z,1.30
2023-02-25T21:54:22.728Z,1.20
2023-02-25T21:56:49.833Z,1.20
2023-02-25T21:59:17.270Z,1.20
2023-02-25T22:01:44.846Z,1.20
2023-02-25T22:04:14.903Z,1.20
2023-02-25T22:06:42.006Z,1.20
2023-02-25T22:09:09.655Z,1.30
2023-02-25T22:11:45.107Z,1.30
2023-02-25T22:14:36.918Z,1.30
2023-02-25T22:17:28.067Z,1.30
2023-02-25T22:20:16.587Z,1.30
2023-02-25T22:22:46.283Z,1.30
2023-02-25T22:25:13.810Z,1.40
2023-02-25T22:27:45.547Z,1.30
2023-02-25T22:30:18.658Z,1.30
2023-02-25T22:32:48.294Z,1.30
2023-02-25T22:35:15.879Z,1.40
2023-02-25T22:37:45.287Z,1.40
2023-02-25T22:40:13.217Z,1.30
2023-02-25T22:42:40.922Z,1.30
2023-02-25T22:45:08.716Z,1.30
2023-02-25T22:47:35.804Z,1.30
2023-02-25T22:50:03.275Z,1.30
2023-02-25T22:52:32.595Z,1.30
2023-02-25T22:54:59.932Z,1.30
2023-02-25T22:57:26.984Z,1.30
2023-02-25T22:59:59.663Z,1.30
2023-02-25T23:02:34.086Z,1.40
2023-02-25T23:05:01.419Z,1.40
2023-02-25T23:07:30.698Z,1.40
2023-02-25T23:09:58.041Z,1.50
2023-02-25T23:12:25.132Z,1.40
2023-02-25T23:14:52.520Z,1.40
2023-02-25T23:17:19.575Z,1.40
2023-02-25T23:19:46.930Z,1.40
2023-02-25T23:22:13.999Z,1.50
2023-02-25T23:24:41.386Z,1.40
2023-02-25T23:27:08.425Z,1.40
2023-02-25T23:29:35.760Z,1.30
2023-02-25T23:32:05.415Z,1.30
2023-02-25T23:34:35.268Z,1.30
2023-02-25T23:37:02.366Z,1.30
2023-02-25T23:39:29.742Z,1.40
2023-02-25T23:41:56.886Z,1.30
2023-02-25T23:44:24.430Z,1.30
2023-02-25T23:46:51.673Z,1.20
2023-02-25T23:49:18.989Z,1.10
2023-02-25T23:51:47.592Z,1.10
2023-02-25T23:54:17.913Z,1.10
2023-02-25T23:56:45.538Z,1.10
2023-02-25T23:59:13.321Z,1.10
